sensor_id;sensor_type;location;lat;lon;timestamp;P1;durP1;ratioP1;P2;durP2;ratioP2
68178;SDS011;54998;42.656;23.382;2022-09-24T00:00:58;4.13;;;2.42;;
68178;SDS011;54998;42.656;23.382;2022-09-24T00:03:24;4.63;;;2.80;;
68178;SDS011;54998;42.656;23.382;2022-09-24T00:05:50;4.03;;;2.38;;
68178;SDS011;54998;42.656;23.382;2022-09-24T00:08:17;4.57;;;2.33;;
68178;SDS011;54998;42.656;23.382;2022-09-24T00:10:43;4.35;;;2.53;;
68178;SDS011;54998;42.656;23.382;2022-09-24T00:13:12;4.80;;;2.58;;
68178;SDS011;54998;42.656;23.382;2022-09-24T00:15:41;3.45;;;2.42;;
68178;SDS011;54998;42.656;23.382;2022-09-24T00:18:08;3.83;;;2.42;;
68178;SDS011;54998;42.656;23.382;2022-09-24T00:20:36;4.75;;;2.28;;
68178;SDS011;54998;42.656;23.382;2022-09-24T00:23:03;5.55;;;2.42;;
68178;SDS011;54998;42.656;23.382;2022-09-24T00:25:29;4.22;;;2.67;;
68178;SDS011;54998;42.656;23.382;2022-09-24T00:28:13;3.65;;;2.38;;
68178;SDS011;54998;42.656;23.382;2022-09-24T00:30:40;4.00;;;2.33;;
68178;SDS011;54998;42.656;23.382;2022-09-24T00:35:32;4.20;;;2.60;;
68178;SDS011;54998;42.656;23.382;2022-09-24T00:37:58;4.53;;;2.55;;
68178;SDS011;54998;42.656;23.382;2022-09-24T00:40:31;4.50;;;2.47;;
68178;SDS011;54998;42.656;23.382;2022-09-24T00:42:57;6.35;;;3.15;;
68178;SDS011;54998;42.656;23.382;2022-09-24T00:45:23;4.65;;;2.70;;
68178;SDS011;54998;42.656;23.382;2022-09-24T00:47:51;4.38;;;2.58;;
68178;SDS011;54998;42.656;23.382;2022-09-24T00:50:31;5.05;;;2.50;;
68178;SDS011;54998;42.656;23.382;2022-09-24T00:55:24;4.68;;;2.72;;
68178;SDS011;54998;42.656;23.382;2022-09-24T00:57:51;4.97;;;2.83;;
68178;SDS011;54998;42.656;23.382;2022-09-24T01:00:20;5.35;;;2.92;;
68178;SDS011;54998;42.656;23.382;2022-09-24T01:02:46;4.35;;;2.63;;
68178;SDS011;54998;42.656;23.382;2022-09-24T01:05:14;4.35;;;2.55;;
68178;SDS011;54998;42.656;23.382;2022-09-24T01:07:40;4.03;;;2.53;;
68178;SDS011;54998;42.656;23.382;2022-09-24T01:10:06;5.65;;;3.13;;
68178;SDS011;54998;42.656;23.382;2022-09-24T01:15:27;4.60;;;2.65;;
68178;SDS011;54998;42.656;23.382;2022-09-24T01:18:13;5.93;;;2.85;;
68178;SDS011;54998;42.656;23.382;2022-09-24T01:23:51;4.15;;;2.90;;
68178;SDS011;54998;42.656;23.382;2022-09-24T01:32:05;6.20;;;3.17;;
68178;SDS011;54998;42.656;23.382;2022-09-24T01:34:45;3.90;;;2.53;;
68178;SDS011;54998;42.656;23.382;2022-09-24T01:37:15;4.93;;;2.63;;
68178;SDS011;54998;42.656;23.382;2022-09-24T01:39:43;5.45;;;2.75;;
68178;SDS011;54998;42.656;23.382;2022-09-24T01:42:11;5.60;;;3.20;;
68178;SDS011;54998;42.656;23.382;2022-09-24T01:44:38;5.78;;;3.20;;
68178;SDS011;54998;42.656;23.382;2022-09-24T01:47:08;5.28;;;2.95;;
68178;SDS011;54998;42.656;23.382;2022-09-24T01:49:37;5.47;;;3.30;;
68178;SDS011;54998;42.656;23.382;2022-09-24T01:52:03;6.50;;;3.25;;
68178;SDS011;54998;42.656;23.382;2022-09-24T01:54:36;5.43;;;3.28;;
68178;SDS011;54998;42.656;23.382;2022-09-24T01:59:35;5.70;;;3.75;;
68178;SDS011;54998;42.656;23.382;2022-09-24T02:02:11;6.93;;;3.83;;
68178;SDS011;54998;42.656;23.382;2022-09-24T02:05:02;7.07;;;3.47;;
68178;SDS011;54998;42.656;23.382;2022-09-24T02:10:27;6.00;;;3.58;;
68178;SDS011;54998;42.656;23.382;2022-09-24T02:12:57;7.68;;;3.55;;
68178;SDS011;54998;42.656;23.382;2022-09-24T02:15:29;6.20;;;3.67;;
68178;SDS011;54998;42.656;23.382;2022-09-24T02:17:58;14.57;;;4.28;;
68178;SDS011;54998;42.656;23.382;2022-09-24T02:20:28;16.40;;;4.80;;
68178;SDS011;54998;42.656;23.382;2022-09-24T02:22:57;6.68;;;3.58;;
68178;SDS011;54998;42.656;23.382;2022-09-24T02:25:31;10.30;;;3.97;;
68178;SDS011;54998;42.656;23.382;2022-09-24T02:28:01;6.28;;;3.88;;
68178;SDS011;54998;42.656;23.382;2022-09-24T02:30:27;5.22;;;3.38;;
68178;SDS011;54998;42.656;23.382;2022-09-24T02:32:53;6.75;;;4.13;;
68178;SDS011;54998;42.656;23.382;2022-09-24T02:35:20;7.47;;;4.28;;
68178;SDS011;54998;42.656;23.382;2022-09-24T02:37:47;5.78;;;3.17;;
68178;SDS011;54998;42.656;23.382;2022-09-24T02:40:12;6.00;;;3.97;;
68178;SDS011;54998;42.656;23.382;2022-09-24T02:42:39;7.13;;;3.60;;
68178;SDS011;54998;42.656;23.382;2022-09-24T02:45:06;7.30;;;4.10;;
68178;SDS011;54998;42.656;23.382;2022-09-24T02:47:32;5.95;;;3.88;;
68178;SDS011;54998;42.656;23.382;2022-09-24T02:49:58;7.18;;;3.97;;
68178;SDS011;54998;42.656;23.382;2022-09-24T02:52:24;8.50;;;4.32;;
68178;SDS011;54998;42.656;23.382;2022-09-24T02:54:50;6.53;;;4.07;;
68178;SDS011;54998;42.656;23.382;2022-09-24T02:57:16;5.55;;;3.90;;
68178;SDS011;54998;42.656;23.382;2022-09-24T02:59:42;6.13;;;3.83;;
68178;SDS011;54998;42.656;23.382;2022-09-24T03:02:08;10.18;;;4.32;;
68178;SDS011;54998;42.656;23.382;2022-09-24T03:04:33;8.68;;;4.28;;
68178;SDS011;54998;42.656;23.382;2022-09-24T03:06:58;9.25;;;4.50;;
68178;SDS011;54998;42.656;23.382;2022-09-24T03:09:24;9.15;;;4.03;;
68178;SDS011;54998;42.656;23.382;2022-09-24T03:11:49;7.03;;;4.10;;
68178;SDS011;54998;42.656;23.382;2022-09-24T03:14:15;8.52;;;4.18;;
68178;SDS011;54998;42.656;23.382;2022-09-24T03:16:40;7.65;;;4.30;;
68178;SDS011;54998;42.656;23.382;2022-09-24T03:19:06;6.18;;;3.55;;
68178;SDS011;54998;42.656;23.382;2022-09-24T03:21:31;8.15;;;4.40;;
68178;SDS011;54998;42.656;23.382;2022-09-24T03:23:57;8.40;;;4.22;;
68178;SDS011;54998;42.656;23.382;2022-09-24T03:26:24;9.45;;;3.90;;
68178;SDS011;54998;42.656;23.382;2022-09-24T03:28:49;7.53;;;4.78;;
68178;SDS011;54998;42.656;23.382;2022-09-24T03:31:15;6.10;;;4.40;;
68178;SDS011;54998;42.656;23.382;2022-09-24T03:33:42;5.72;;;3.75;;
68178;SDS011;54998;42.656;23.382;2022-09-24T03:36:16;7.05;;;4.35;;
68178;SDS011;54998;42.656;23.382;2022-09-24T03:38:47;7.68;;;4.45;;
68178;SDS011;54998;42.656;23.382;2022-09-24T03:41:15;13.50;;;4.25;;
68178;SDS011;54998;42.656;23.382;2022-09-24T03:43:41;9.35;;;4.30;;
68178;SDS011;54998;42.656;23.382;2022-09-24T03:46:07;7.13;;;4.32;;
68178;SDS011;54998;42.656;23.382;2022-09-24T03:48:34;7.65;;;4.65;;
68178;SDS011;54998;42.656;23.382;2022-09-24T03:51:02;7.03;;;4.32;;
68178;SDS011;54998;42.656;23.382;2022-09-24T03:53:29;8.95;;;4.60;;
68178;SDS011;54998;42.656;23.382;2022-09-24T03:55:55;8.70;;;5.18;;
68178;SDS011;54998;42.656;23.382;2022-09-24T03:58:21;13.43;;;4.28;;
68178;SDS011;54998;42.656;23.382;2022-09-24T04:00:49;7.40;;;3.92;;
68178;SDS011;54998;42.656;23.382;2022-09-24T04:03:16;8.20;;;4.55;;
68178;SDS011;54998;42.656;23.382;2022-09-24T04:05:42;9.48;;;4.32;;
68178;SDS011;54998;42.656;23.382;2022-09-24T04:08:07;7.43;;;4.40;;
68178;SDS011;54998;42.656;23.382;2022-09-24T04:10:33;12.52;;;5.57;;
68178;SDS011;54998;42.656;23.382;2022-09-24T04:12:58;10.27;;;4.88;;
68178;SDS011;54998;42.656;23.382;2022-09-24T04:15:24;13.55;;;5.53;;
68178;SDS011;54998;42.656;23.382;2022-09-24T04:17:53;16.33;;;6.43;;
68178;SDS011;54998;42.656;23.382;2022-09-24T04:20:21;12.55;;;5.50;;
68178;SDS011;54998;42.656;23.382;2022-09-24T04:25:16;10.35;;;5.30;;
68178;SDS011;54998;42.656;23.382;2022-09-24T04:27:45;10.35;;;5.40;;
68178;SDS011;54998;42.656;23.382;2022-09-24T04:30:12;11.77;;;5.03;;
68178;SDS011;54998;42.656;23.382;2022-09-24T04:32:39;9.77;;;4.78;;
68178;SDS011;54998;42.656;23.382;2022-09-24T04:35:05;8.50;;;4.75;;
68178;SDS011;54998;42.656;23.382;2022-09-24T04:37:31;7.60;;;4.30;;
68178;SDS011;54998;42.656;23.382;2022-09-24T04:39:56;6.40;;;3.72;;
68178;SDS011;54998;42.656;23.382;2022-09-24T04:42:22;5.47;;;3.40;;
68178;SDS011;54998;42.656;23.382;2022-09-24T04:44:47;6.63;;;3.70;;
68178;SDS011;54998;42.656;23.382;2022-09-24T04:47:13;6.05;;;3.25;;
68178;SDS011;54998;42.656;23.382;2022-09-24T04:49:39;5.75;;;2.72;;
68178;SDS011;54998;42.656;23.382;2022-09-24T04:52:07;4.55;;;2.63;;
68178;SDS011;54998;42.656;23.382;2022-09-24T04:54:32;4.10;;;3.00;;
68178;SDS011;54998;42.656;23.382;2022-09-24T04:56:58;4.93;;;2.92;;
68178;SDS011;54998;42.656;23.382;2022-09-24T04:59:23;4.60;;;2.75;;
68178;SDS011;54998;42.656;23.382;2022-09-24T05:01:48;4.15;;;2.92;;
68178;SDS011;54998;42.656;23.382;2022-09-24T05:04:14;3.92;;;3.05;;
68178;SDS011;54998;42.656;23.382;2022-09-24T05:06:39;4.78;;;2.70;;
68178;SDS011;54998;42.656;23.382;2022-09-24T05:09:05;5.85;;;3.20;;
68178;SDS011;54998;42.656;23.382;2022-09-24T05:11:31;4.38;;;2.80;;
68178;SDS011;54998;42.656;23.382;2022-09-24T05:13:56;3.47;;;2.45;;
68178;SDS011;54998;42.656;23.382;2022-09-24T05:16:21;3.90;;;2.80;;
68178;SDS011;54998;42.656;23.382;2022-09-24T05:21:22;6.05;;;3.55;;
68178;SDS011;54998;42.656;23.382;2022-09-24T05:23:47;4.40;;;3.03;;
68178;SDS011;54998;42.656;23.382;2022-09-24T05:26:13;9.02;;;3.42;;
68178;SDS011;54998;42.656;23.382;2022-09-24T05:28:57;7.00;;;3.40;;
68178;SDS011;54998;42.656;23.382;2022-09-24T05:31:22;4.40;;;2.72;;
68178;SDS011;54998;42.656;23.382;2022-09-24T05:33:48;4.55;;;2.97;;
68178;SDS011;54998;42.656;23.382;2022-09-24T05:36:13;4.50;;;3.08;;
68178;SDS011;54998;42.656;23.382;2022-09-24T05:38:39;4.82;;;3.20;;
68178;SDS011;54998;42.656;23.382;2022-09-24T05:41:05;4.88;;;3.00;;
68178;SDS011;54998;42.656;23.382;2022-09-24T05:43:30;5.72;;;3.63;;
68178;SDS011;54998;42.656;23.382;2022-09-24T05:45:56;4.55;;;3.25;;
68178;SDS011;54998;42.656;23.382;2022-09-24T05:50:48;4.68;;;3.33;;
68178;SDS011;54998;42.656;23.382;2022-09-24T05:53:13;4.10;;;2.90;;
68178;SDS011;54998;42.656;23.382;2022-09-24T05:55:39;5.45;;;3.85;;
68178;SDS011;54998;42.656;23.382;2022-09-24T05:58:08;5.47;;;3.63;;
68178;SDS011;54998;42.656;23.382;2022-09-24T06:00:34;5.47;;;3.92;;
68178;SDS011;54998;42.656;23.382;2022-09-24T06:03:04;5.78;;;3.85;;
68178;SDS011;54998;42.656;23.382;2022-09-24T06:05:34;6.05;;;4.55;;
68178;SDS011;54998;42.656;23.382;2022-09-24T06:08:02;8.15;;;4.13;;
68178;SDS011;54998;42.656;23.382;2022-09-24T06:10:28;5.70;;;3.90;;
68178;SDS011;54998;42.656;23.382;2022-09-24T06:12:54;6.35;;;4.32;;
68178;SDS011;54998;42.656;23.382;2022-09-24T06:15:20;6.80;;;4.00;;
68178;SDS011;54998;42.656;23.382;2022-09-24T06:17:46;5.15;;;4.20;;
68178;SDS011;54998;42.656;23.382;2022-09-24T06:20:12;11.20;;;6.88;;
68178;SDS011;54998;42.656;23.382;2022-09-24T06:22:38;11.75;;;6.18;;
68178;SDS011;54998;42.656;23.382;2022-09-24T06:25:04;9.20;;;5.60;;
68178;SDS011;54998;42.656;23.382;2022-09-24T06:27:30;10.75;;;5.82;;
68178;SDS011;54998;42.656;23.382;2022-09-24T06:29:56;11.43;;;5.80;;
68178;SDS011;54998;42.656;23.382;2022-09-24T06:32:22;10.15;;;5.00;;
68178;SDS011;54998;42.656;23.382;2022-09-24T06:34:48;10.18;;;5.88;;
68178;SDS011;54998;42.656;23.382;2022-09-24T06:37:13;12.48;;;6.53;;
68178;SDS011;54998;42.656;23.382;2022-09-24T06:39:38;7.63;;;5.97;;
68178;SDS011;54998;42.656;23.382;2022-09-24T06:42:04;8.80;;;6.32;;
68178;SDS011;54998;42.656;23.382;2022-09-24T06:44:31;12.35;;;6.60;;
68178;SDS011;54998;42.656;23.382;2022-09-24T06:46:58;8.13;;;5.95;;
68178;SDS011;54998;42.656;23.382;2022-09-24T06:49:25;9.35;;;6.22;;
68178;SDS011;54998;42.656;23.382;2022-09-24T06:51:52;10.02;;;6.40;;
68178;SDS011;54998;42.656;23.382;2022-09-24T06:54:18;8.07;;;6.03;;
68178;SDS011;54998;42.656;23.382;2022-09-24T06:56:44;10.27;;;6.20;;
68178;SDS011;54998;42.656;23.382;2022-09-24T06:59:09;14.25;;;7.47;;
68178;SDS011;54998;42.656;23.382;2022-09-24T07:01:35;7.63;;;5.95;;
68178;SDS011;54998;42.656;23.382;2022-09-24T07:04:00;9.35;;;6.30;;
68178;SDS011;54998;42.656;23.382;2022-09-24T07:06:26;11.48;;;6.40;;
68178;SDS011;54998;42.656;23.382;2022-09-24T07:09:11;12.48;;;6.93;;
68178;SDS011;54998;42.656;23.382;2022-09-24T07:11:36;9.93;;;6.22;;
68178;SDS011;54998;42.656;23.382;2022-09-24T07:14:02;10.57;;;6.50;;
68178;SDS011;54998;42.656;23.382;2022-09-24T07:16:27;9.38;;;6.75;;
68178;SDS011;54998;42.656;23.382;2022-09-24T07:18:53;11.35;;;6.63;;
68178;SDS011;54998;42.656;23.382;2022-09-24T07:21:18;9.50;;;6.18;;
68178;SDS011;54998;42.656;23.382;2022-09-24T07:23:43;10.90;;;6.90;;
68178;SDS011;54998;42.656;23.382;2022-09-24T07:26:09;8.32;;;6.60;;
68178;SDS011;54998;42.656;23.382;2022-09-24T07:28:34;7.82;;;5.78;;
68178;SDS011;54998;42.656;23.382;2022-09-24T07:30:59;9.45;;;6.00;;
68178;SDS011;54998;42.656;23.382;2022-09-24T07:33:25;7.78;;;5.88;;
68178;SDS011;54998;42.656;23.382;2022-09-24T07:35:51;8.95;;;6.07;;
68178;SDS011;54998;42.656;23.382;2022-09-24T07:38:16;7.70;;;5.57;;
68178;SDS011;54998;42.656;23.382;2022-09-24T07:40:42;7.22;;;6.03;;
68178;SDS011;54998;42.656;23.382;2022-09-24T07:43:08;6.10;;;5.50;;
68178;SDS011;54998;42.656;23.382;2022-09-24T07:45:37;5.60;;;4.80;;
68178;SDS011;54998;42.656;23.382;2022-09-24T07:50:30;6.93;;;4.30;;
68178;SDS011;54998;42.656;23.382;2022-09-24T07:52:57;8.45;;;5.40;;
68178;SDS011;54998;42.656;23.382;2022-09-24T07:55:22;6.32;;;4.55;;
68178;SDS011;54998;42.656;23.382;2022-09-24T07:57:49;7.05;;;5.47;;
68178;SDS011;54998;42.656;23.382;2022-09-24T08:00:16;7.57;;;5.15;;
68178;SDS011;54998;42.656;23.382;2022-09-24T08:02:43;7.10;;;4.60;;
68178;SDS011;54998;42.656;23.382;2022-09-24T08:05:09;9.65;;;5.30;;
68178;SDS011;54998;42.656;23.382;2022-09-24T08:07:36;7.35;;;4.53;;
68178;SDS011;54998;42.656;23.382;2022-09-24T08:10:01;7.93;;;4.80;;
68178;SDS011;54998;42.656;23.382;2022-09-24T08:14:52;9.60;;;6.50;;
68178;SDS011;54998;42.656;23.382;2022-09-24T08:17:18;4.93;;;4.10;;
68178;SDS011;54998;42.656;23.382;2022-09-24T08:19:43;8.32;;;4.13;;
68178;SDS011;54998;42.656;23.382;2022-09-24T08:22:10;5.20;;;4.05;;
68178;SDS011;54998;42.656;23.382;2022-09-24T08:24:38;3.92;;;3.42;;
68178;SDS011;54998;42.656;23.382;2022-09-24T08:29:29;4.57;;;3.67;;
68178;SDS011;54998;42.656;23.382;2022-09-24T08:31:54;5.95;;;3.90;;
68178;SDS011;54998;42.656;23.382;2022-09-24T08:34:20;8.00;;;4.50;;
68178;SDS011;54998;42.656;23.382;2022-09-24T08:36:45;4.75;;;3.90;;
68178;SDS011;54998;42.656;23.382;2022-09-24T08:39:10;6.80;;;4.25;;
68178;SDS011;54998;42.656;23.382;2022-09-24T08:41:54;6.72;;;3.95;;
68178;SDS011;54998;42.656;23.382;2022-09-24T08:50:12;5.03;;;4.47;;
68178;SDS011;54998;42.656;23.382;2022-09-24T08:57:43;6.03;;;4.70;;
68178;SDS011;54998;42.656;23.382;2022-09-24T09:00:19;8.50;;;4.70;;
68178;SDS011;54998;42.656;23.382;2022-09-24T09:02:52;6.55;;;5.07;;
68178;SDS011;54998;42.656;23.382;2022-09-24T09:08:36;7.28;;;4.93;;
68178;SDS011;54998;42.656;23.382;2022-09-24T09:11:05;6.20;;;4.97;;
68178;SDS011;54998;42.656;23.382;2022-09-24T09:13:35;5.53;;;4.93;;
68178;SDS011;54998;42.656;23.382;2022-09-24T09:18:46;7.03;;;5.35;;
68178;SDS011;54998;42.656;23.382;2022-09-24T09:24:19;6.40;;;4.85;;
68178;SDS011;54998;42.656;23.382;2022-09-24T09:26:59;5.65;;;4.15;;
68178;SDS011;54998;42.656;23.382;2022-09-24T09:32:11;5.15;;;4.28;;
68178;SDS011;54998;42.656;23.382;2022-09-24T09:37:41;9.35;;;4.82;;
68178;SDS011;54998;42.656;23.382;2022-09-24T09:42:36;6.25;;;4.30;;
68178;SDS011;54998;42.656;23.382;2022-09-24T09:47:49;6.38;;;4.88;;
68178;SDS011;54998;42.656;23.382;2022-09-24T09:53:02;5.35;;;4.65;;
68178;SDS011;54998;42.656;23.382;2022-09-24T09:55:30;10.68;;;4.90;;
68178;SDS011;54998;42.656;23.382;2022-09-24T10:00:40;7.63;;;5.55;;
68178;SDS011;54998;42.656;23.382;2022-09-24T10:03:19;6.85;;;5.68;;
68178;SDS011;54998;42.656;23.382;2022-09-24T10:05:54;8.30;;;5.95;;
68178;SDS011;54998;42.656;23.382;2022-09-24T10:08:21;8.40;;;6.65;;
68178;SDS011;54998;42.656;23.382;2022-09-24T10:10:51;8.38;;;5.80;;
68178;SDS011;54998;42.656;23.382;2022-09-24T10:13:21;6.55;;;5.65;;
68178;SDS011;54998;42.656;23.382;2022-09-24T10:15:57;8.13;;;5.75;;
68178;SDS011;54998;42.656;23.382;2022-09-24T10:18:33;6.65;;;5.47;;
68178;SDS011;54998;42.656;23.382;2022-09-24T10:21:05;13.15;;;6.53;;
68178;SDS011;54998;42.656;23.382;2022-09-24T10:23:42;11.48;;;6.25;;
68178;SDS011;54998;42.656;23.382;2022-09-24T10:26:11;7.97;;;6.38;;
68178;SDS011;54998;42.656;23.382;2022-09-24T10:28:40;7.50;;;6.00;;
68178;SDS011;54998;42.656;23.382;2022-09-24T10:31:29;6.13;;;5.35;;
68178;SDS011;54998;42.656;23.382;2022-09-24T10:33:59;6.60;;;5.10;;
68178;SDS011;54998;42.656;23.382;2022-09-24T10:36:29;8.85;;;4.82;;
68178;SDS011;54998;42.656;23.382;2022-09-24T10:39:00;10.93;;;5.50;;
68178;SDS011;54998;42.656;23.382;2022-09-24T10:41:44;7.00;;;5.45;;
68178;SDS011;54998;42.656;23.382;2022-09-24T10:44:14;8.05;;;5.38;;
68178;SDS011;54998;42.656;23.382;2022-09-24T11:00:27;6.20;;;5.55;;
68178;SDS011;54998;42.656;23.382;2022-09-24T11:11:25;5.57;;;4.03;;
68178;SDS011;54998;42.656;23.382;2022-09-24T11:14:15;3.30;;;2.90;;
68178;SDS011;54998;42.656;23.382;2022-09-24T11:25:39;3.10;;;2.28;;
68178;SDS011;54998;42.656;23.382;2022-09-24T11:31:45;4.00;;;2.33;;
68178;SDS011;54998;42.656;23.382;2022-09-24T11:37:37;4.53;;;2.22;;
68178;SDS011;54998;42.656;23.382;2022-09-24T11:40:15;3.67;;;2.40;;
68178;SDS011;54998;42.656;23.382;2022-09-24T11:46:21;2.60;;;2.15;;
68178;SDS011;54998;42.656;23.382;2022-09-24T11:54:18;2.80;;;2.13;;
68178;SDS011;54998;42.656;23.382;2022-09-24T11:56:54;2.67;;;2.45;;
68178;SDS011;54998;42.656;23.382;2022-09-24T12:05:21;11.18;;;3.03;;
68178;SDS011;54998;42.656;23.382;2022-09-24T12:10:45;5.50;;;2.78;;
68178;SDS011;54998;42.656;23.382;2022-09-24T12:15:54;3.42;;;2.40;;
68178;SDS011;54998;42.656;23.382;2022-09-24T12:18:24;3.22;;;2.40;;
68178;SDS011;54998;42.656;23.382;2022-09-24T12:23:25;4.50;;;2.03;;
68178;SDS011;54998;42.656;23.382;2022-09-24T12:25:56;5.72;;;2.20;;
68178;SDS011;54998;42.656;23.382;2022-09-24T12:28:23;5.03;;;2.22;;
68178;SDS011;54998;42.656;23.382;2022-09-24T12:31:21;3.30;;;1.92;;
68178;SDS011;54998;42.656;23.382;2022-09-24T12:36:46;3.70;;;2.28;;
68178;SDS011;54998;42.656;23.382;2022-09-24T12:39:21;3.55;;;2.10;;
68178;SDS011;54998;42.656;23.382;2022-09-24T12:41:59;3.63;;;2.13;;
68178;SDS011;54998;42.656;23.382;2022-09-24T12:47:19;3.03;;;1.77;;
68178;SDS011;54998;42.656;23.382;2022-09-24T12:49:49;6.10;;;2.13;;
68178;SDS011;54998;42.656;23.382;2022-09-24T12:52:40;3.15;;;2.00;;
68178;SDS011;54998;42.656;23.382;2022-09-24T12:58:05;2.30;;;1.90;;
68178;SDS011;54998;42.656;23.382;2022-09-24T13:00:48;3.72;;;2.00;;
68178;SDS011;54998;42.656;23.382;2022-09-24T13:06:35;2.40;;;1.98;;
68178;SDS011;54998;42.656;23.382;2022-09-24T13:09:02;2.85;;;2.50;;
68178;SDS011;54998;42.656;23.382;2022-09-24T13:11:47;2.72;;;2.22;;
68178;SDS011;54998;42.656;23.382;2022-09-24T13:16:39;3.75;;;2.53;;
68178;SDS011;54998;42.656;23.382;2022-09-24T13:21:59;3.10;;;2.25;;
68178;SDS011;54998;42.656;23.382;2022-09-24T13:24:43;2.92;;;2.10;;
68178;SDS011;54998;42.656;23.382;2022-09-24T13:27:23;2.70;;;1.80;;
68178;SDS011;54998;42.656;23.382;2022-09-24T13:32:36;4.32;;;2.17;;
68178;SDS011;54998;42.656;23.382;2022-09-24T13:35:08;4.07;;;2.20;;
68178;SDS011;54998;42.656;23.382;2022-09-24T13:37:40;5.03;;;2.45;;
68178;SDS011;54998;42.656;23.382;2022-09-24T13:40:15;2.78;;;2.22;;
68178;SDS011;54998;42.656;23.382;2022-09-24T13:45:21;3.45;;;2.05;;
68178;SDS011;54998;42.656;23.382;2022-09-24T13:53:00;2.72;;;2.13;;
68178;SDS011;54998;42.656;23.382;2022-09-24T13:55:50;4.05;;;2.25;;
68178;SDS011;54998;42.656;23.382;2022-09-24T13:58:34;4.60;;;2.10;;
68178;SDS011;54998;42.656;23.382;2022-09-24T14:03:40;4.60;;;2.20;;
68178;SDS011;54998;42.656;23.382;2022-09-24T14:06:09;2.70;;;2.00;;
68178;SDS011;54998;42.656;23.382;2022-09-24T14:08:38;3.97;;;2.45;;
68178;SDS011;54998;42.656;23.382;2022-09-24T14:11:19;2.55;;;2.30;;
68178;SDS011;54998;42.656;23.382;2022-09-24T14:13:48;3.72;;;2.70;;
68178;SDS011;54998;42.656;23.382;2022-09-24T14:18:39;3.20;;;2.00;;
68178;SDS011;54998;42.656;23.382;2022-09-24T14:29:08;3.42;;;2.65;;
68178;SDS011;54998;42.656;23.382;2022-09-24T14:31:45;2.95;;;2.28;;
68178;SDS011;54998;42.656;23.382;2022-09-24T14:34:24;4.60;;;2.40;;
68178;SDS011;54998;42.656;23.382;2022-09-24T14:36:53;3.75;;;2.42;;
68178;SDS011;54998;42.656;23.382;2022-09-24T14:39:26;2.70;;;2.13;;
68178;SDS011;54998;42.656;23.382;2022-09-24T14:41:53;2.88;;;2.10;;
68178;SDS011;54998;42.656;23.382;2022-09-24T14:44:25;3.53;;;2.20;;
68178;SDS011;54998;42.656;23.382;2022-09-24T14:46:53;3.22;;;2.30;;
68178;SDS011;54998;42.656;23.382;2022-09-24T14:49:42;3.58;;;2.25;;
68178;SDS011;54998;42.656;23.382;2022-09-24T14:52:25;3.72;;;2.30;;
68178;SDS011;54998;42.656;23.382;2022-09-24T14:54:59;4.13;;;2.72;;
68178;SDS011;54998;42.656;23.382;2022-09-24T14:57:38;3.15;;;2.30;;
68178;SDS011;54998;42.656;23.382;2022-09-24T15:00:26;5.03;;;2.70;;
68178;SDS011;54998;42.656;23.382;2022-09-24T15:03:03;4.68;;;2.97;;
68178;SDS011;54998;42.656;23.382;2022-09-24T15:05:36;4.25;;;2.25;;
68178;SDS011;54998;42.656;23.382;2022-09-24T15:10:38;3.40;;;2.60;;
68178;SDS011;54998;42.656;23.382;2022-09-24T15:13:13;3.40;;;2.10;;
68178;SDS011;54998;42.656;23.382;2022-09-24T15:15:44;5.00;;;2.60;;
68178;SDS011;54998;42.656;23.382;2022-09-24T15:18:10;6.47;;;2.90;;
68178;SDS011;54998;42.656;23.382;2022-09-24T15:20:36;4.32;;;3.00;;
68178;SDS011;54998;42.656;23.382;2022-09-24T15:23:02;3.42;;;2.83;;
68178;SDS011;54998;42.656;23.382;2022-09-24T15:25:27;9.60;;;3.22;;
68178;SDS011;54998;42.656;23.382;2022-09-24T15:27:53;4.68;;;3.20;;
68178;SDS011;54998;42.656;23.382;2022-09-24T15:30:19;4.80;;;2.83;;
68178;SDS011;54998;42.656;23.382;2022-09-24T15:32:46;5.05;;;2.83;;
68178;SDS011;54998;42.656;23.382;2022-09-24T15:35:14;7.43;;;3.45;;
68178;SDS011;54998;42.656;23.382;2022-09-24T15:40:07;6.20;;;4.15;;
68178;SDS011;54998;42.656;23.382;2022-09-24T15:42:44;6.07;;;3.00;;
68178;SDS011;54998;42.656;23.382;2022-09-24T15:45:17;6.38;;;3.17;;
68178;SDS011;54998;42.656;23.382;2022-09-24T15:47:45;5.50;;;3.45;;
68178;SDS011;54998;42.656;23.382;2022-09-24T15:50:12;6.88;;;3.28;;
68178;SDS011;54998;42.656;23.382;2022-09-24T15:52:47;4.90;;;3.22;;
68178;SDS011;54998;42.656;23.382;2022-09-24T15:55:17;6.47;;;4.10;;
68178;SDS011;54998;42.656;23.382;2022-09-24T15:57:44;9.20;;;4.25;;
68178;SDS011;54998;42.656;23.382;2022-09-24T16:00:20;6.53;;;4.28;;
68178;SDS011;54998;42.656;23.382;2022-09-24T16:02:51;8.48;;;3.67;;
68178;SDS011;54998;42.656;23.382;2022-09-24T16:05:19;8.93;;;4.20;;
68178;SDS011;54998;42.656;23.382;2022-09-24T16:07:44;9.40;;;6.30;;
68178;SDS011;54998;42.656;23.382;2022-09-24T16:10:11;7.07;;;3.53;;
68178;SDS011;54998;42.656;23.382;2022-09-24T16:12:38;7.18;;;4.05;;
68178;SDS011;54998;42.656;23.382;2022-09-24T16:15:04;7.22;;;3.95;;
68178;SDS011;54998;42.656;23.382;2022-09-24T16:17:30;12.40;;;5.45;;
68178;SDS011;54998;42.656;23.382;2022-09-24T16:19:55;8.60;;;4.70;;
68178;SDS011;54998;42.656;23.382;2022-09-24T16:22:21;8.95;;;3.92;;
68178;SDS011;54998;42.656;23.382;2022-09-24T16:24:46;8.25;;;3.95;;
68178;SDS011;54998;42.656;23.382;2022-09-24T16:27:12;7.47;;;4.13;;
68178;SDS011;54998;42.656;23.382;2022-09-24T16:29:37;8.25;;;4.22;;
68178;SDS011;54998;42.656;23.382;2022-09-24T16:32:03;7.97;;;4.38;;
68178;SDS011;54998;42.656;23.382;2022-09-24T16:34:28;8.52;;;4.70;;
68178;SDS011;54998;42.656;23.382;2022-09-24T16:39:22;8.45;;;4.38;;
68178;SDS011;54998;42.656;23.382;2022-09-24T16:41:48;6.63;;;4.22;;
68178;SDS011;54998;42.656;23.382;2022-09-24T16:46:41;7.07;;;4.45;;
68178;SDS011;54998;42.656;23.382;2022-09-24T16:49:10;9.20;;;4.32;;
68178;SDS011;54998;42.656;23.382;2022-09-24T16:51:36;8.98;;;4.43;;
68178;SDS011;54998;42.656;23.382;2022-09-24T16:54:02;6.93;;;4.20;;
68178;SDS011;54998;42.656;23.382;2022-09-24T16:56:30;16.13;;;4.95;;
68178;SDS011;54998;42.656;23.382;2022-09-24T16:58:55;7.68;;;4.25;;
68178;SDS011;54998;42.656;23.382;2022-09-24T17:01:21;8.15;;;5.32;;
68178;SDS011;54998;42.656;23.382;2022-09-24T17:03:50;10.73;;;5.00;;
68178;SDS011;54998;42.656;23.382;2022-09-24T17:06:27;11.05;;;6.35;;
68178;SDS011;54998;42.656;23.382;2022-09-24T17:08:53;9.23;;;4.72;;
68178;SDS011;54998;42.656;23.382;2022-09-24T17:11:37;10.40;;;6.22;;
68178;SDS011;54998;42.656;23.382;2022-09-24T17:14:09;11.32;;;4.78;;
68178;SDS011;54998;42.656;23.382;2022-09-24T17:16:40;12.48;;;5.50;;
68178;SDS011;54998;42.656;23.382;2022-09-24T17:19:10;11.10;;;5.28;;
68178;SDS011;54998;42.656;23.382;2022-09-24T17:21:37;8.43;;;4.75;;
68178;SDS011;54998;42.656;23.382;2022-09-24T17:24:04;8.77;;;4.90;;
68178;SDS011;54998;42.656;23.382;2022-09-24T17:26:30;9.65;;;4.55;;
68178;SDS011;54998;42.656;23.382;2022-09-24T17:28:55;7.38;;;4.70;;
68178;SDS011;54998;42.656;23.382;2022-09-24T17:31:22;8.85;;;4.30;;
68178;SDS011;54998;42.656;23.382;2022-09-24T17:34:03;9.90;;;4.20;;
68178;SDS011;54998;42.656;23.382;2022-09-24T17:39:05;8.20;;;4.75;;
68178;SDS011;54998;42.656;23.382;2022-09-24T17:41:31;12.00;;;5.07;;
68178;SDS011;54998;42.656;23.382;2022-09-24T17:43:57;13.07;;;5.82;;
68178;SDS011;54998;42.656;23.382;2022-09-24T17:46:23;17.13;;;7.20;;
68178;SDS011;54998;42.656;23.382;2022-09-24T17:51:17;15.02;;;6.88;;
68178;SDS011;54998;42.656;23.382;2022-09-24T17:53:47;16.80;;;7.07;;